createdAt,value
2018-12-31T00:01:50.978Z,18.18
2018-12-31T00:04:18.198Z,18.16
2018-12-31T00:06:45.420Z,18.12
2018-12-31T00:09:12.656Z,18.15
2018-12-31T00:11:39.862Z,18.15
2018-12-31T00:14:07.101Z,18.17
2018-12-31T00:16:34.287Z,18.16
2018-12-31T00:19:01.520Z,18.15
2018-12-31T00:21:28.732Z,18.17
2018-12-31T00:23:55.974Z,18.17
2018-12-31T00:26:23.175Z,18.17
2018-12-31T00:28:50.466Z,18.18
2018-12-31T00:31:17.694Z,18.11
2018-12-31T00:33:44.969Z,18.20
2018-12-31T00:36:12.167Z,18.20
2018-12-31T00:38:58.913Z,18.21
2018-12-31T00:41:26.136Z,18.21
2018-12-31T00:43:53.351Z,18.14
2018-12-31T00:46:20.611Z,18.10
2018-12-31T00:48:47.793Z,18.16
2018-12-31T00:51:15.023Z,18.16
2018-12-31T00:53:42.228Z,18.15
2018-12-31T00:56:09.436Z,18.16
2018-12-31T00:58:44.118Z,18.16
2018-12-31T01:01:11.312Z,18.14
2018-12-31T01:03:38.509Z,18.16
2018-12-31T01:06:05.699Z,18.15
2018-12-31T01:08:32.959Z,18.17
2018-12-31T01:11:00.156Z,18.19
2018-12-31T01:13:27.359Z,18.15
2018-12-31T01:15:54.564Z,18.18
2018-12-31T01:18:21.761Z,18.19
2018-12-31T01:20:48.970Z,18.18
2018-12-31T01:23:16.173Z,18.16
2018-12-31T01:25:43.417Z,18.16
2018-12-31T01:28:10.706Z,18.16
2018-12-31T01:30:37.898Z,18.16
2018-12-31T01:33:05.070Z,18.15
2018-12-31T01:35:32.412Z,18.16
2018-12-31T01:37:59.618Z,18.15
2018-12-31T01:40:26.838Z,18.16
2018-12-31T01:42:54.064Z,18.16
2018-12-31T01:45:21.250Z,18.15
2018-12-31T01:47:48.507Z,18.13
2018-12-31T01:50:15.727Z,18.13
2018-12-31T01:52:42.984Z,18.15
2018-12-31T01:55:10.232Z,18.13
2018-12-31T01:57:37.440Z,18.14
2018-12-31T02:00:05.411Z,18.15
2018-12-31T02:02:32.628Z,18.16
2018-12-31T02:04:59.831Z,18.10
2018-12-31T02:07:27.099Z,18.13
2018-12-31T02:09:54.296Z,18.14
2018-12-31T02:12:21.480Z,18.12
2018-12-31T02:14:48.714Z,18.12
2018-12-31T02:17:15.926Z,18.13
2018-12-31T02:19:43.125Z,18.12
2018-12-31T02:22:10.322Z,18.12
2018-12-31T02:24:37.504Z,18.12
2018-12-31T02:27:04.740Z,18.13
2018-12-31T02:29:31.916Z,18.14
2018-12-31T02:31:59.145Z,18.10
2018-12-31T02:34:26.327Z,18.12
2018-12-31T02:36:53.584Z,18.10
2018-12-31T02:39:20.838Z,18.10
2018-12-31T02:41:48.004Z,18.12
2018-12-31T02:44:15.251Z,18.11
2018-12-31T02:46:42.469Z,18.11
2018-12-31T02:49:09.657Z,18.12
2018-12-31T02:51:36.851Z,18.11
2018-12-31T02:54:04.071Z,18.08
2018-12-31T02:56:31.235Z,18.08
2018-12-31T02:58:58.459Z,18.10
2018-12-31T03:01:25.626Z,18.08
2018-12-31T03:03:52.857Z,18.08
2018-12-31T03:06:20.054Z,18.08
2018-12-31T03:08:47.276Z,18.13
2018-12-31T03:11:14.512Z,18.13
2018-12-31T03:13:41.672Z,18.12
2018-12-31T03:16:08.907Z,18.12
2018-12-31T03:18:36.206Z,18.11
2018-12-31T03:21:03.456Z,18.10
2018-12-31T03:23:30.661Z,18.10
2018-12-31T03:25:57.902Z,18.10
2018-12-31T03:28:25.266Z,18.10
2018-12-31T03:30:52.521Z,18.10
2018-12-31T03:33:19.859Z,18.09
2018-12-31T03:35:47.067Z,18.12
2018-12-31T03:38:14.377Z,18.12
2018-12-31T03:40:41.653Z,18.09
2018-12-31T03:43:08.831Z,18.09
2018-12-31T03:45:36.035Z,18.15
2018-12-31T03:48:03.233Z,18.14
2018-12-31T03:50:30.487Z,18.16
2018-12-31T03:52:57.665Z,18.16
2018-12-31T03:55:24.878Z,18.15
2018-12-31T03:57:52.087Z,18.15
2018-12-31T04:00:19.293Z,18.16
2018-12-31T04:02:47.073Z,18.12
2018-12-31T04:05:14.415Z,18.13
2018-12-31T04:07:41.666Z,18.14
2018-12-31T04:10:08.858Z,18.13
2018-12-31T04:12:36.088Z,18.14
2018-12-31T04:15:03.286Z,18.14
2018-12-31T04:17:30.870Z,18.13
2018-12-31T04:19:58.110Z,18.11
2018-12-31T04:22:25.297Z,18.12
2018-12-31T04:24:52.530Z,18.11
2018-12-31T04:27:19.722Z,18.15
2018-12-31T04:29:46.965Z,18.16
2018-12-31T04:32:14.122Z,18.16
2018-12-31T04:34:41.290Z,18.19
2018-12-31T04:37:08.491Z,18.21
2018-12-31T04:39:35.710Z,18.22
2018-12-31T04:42:02.975Z,18.23
2018-12-31T04:44:30.136Z,18.26
2018-12-31T04:46:57.321Z,18.29
2018-12-31T04:49:24.485Z,18.31
2018-12-31T04:51:51.700Z,18.31
2018-12-31T04:54:18.895Z,18.31
2018-12-31T04:56:46.108Z,18.33
2018-12-31T04:59:13.351Z,18.35
2018-12-31T05:01:40.541Z,18.34
2018-12-31T05:04:07.723Z,18.37
2018-12-31T05:06:34.905Z,18.36
2018-12-31T05:09:02.358Z,18.37
2018-12-31T05:11:29.577Z,18.34
2018-12-31T05:13:56.760Z,18.39
2018-12-31T05:16:24.012Z,18.41
2018-12-31T05:18:51.244Z,18.41
2018-12-31T05:21:18.560Z,18.41
2018-12-31T05:23:45.848Z,18.41
2018-12-31T05:26:13.018Z,18.42
2018-12-31T05:28:40.229Z,18.40
2018-12-31T05:31:07.495Z,18.42
2018-12-31T05:33:34.706Z,18.43
2018-12-31T05:36:02.030Z,18.45
2018-12-31T05:38:29.229Z,18.43
2018-12-31T05:40:56.472Z,18.43
2018-12-31T05:43:23.689Z,18.47
2018-12-31T05:45:50.870Z,18.47
2018-12-31T05:48:18.097Z,18.48
2018-12-31T05:50:45.264Z,18.48
2018-12-31T05:53:12.525Z,18.50
2018-12-31T05:55:39.707Z,18.52
2018-12-31T05:58:06.916Z,18.52
2018-12-31T06:00:35.437Z,18.52
2018-12-31T06:03:02.628Z,18.52
2018-12-31T06:05:29.983Z,18.52
2018-12-31T06:07:57.206Z,18.50
2018-12-31T06:10:24.444Z,18.55
2018-12-31T06:12:51.627Z,18.56
2018-12-31T06:15:18.827Z,18.56
2018-12-31T06:17:46.035Z,18.55
2018-12-31T06:20:13.233Z,18.54
2018-12-31T06:22:40.437Z,18.53
2018-12-31T06:25:07.673Z,18.53
2018-12-31T06:27:34.872Z,18.53
2018-12-31T06:30:02.503Z,18.53
2018-12-31T06:32:29.879Z,18.52
2018-12-31T06:34:57.186Z,18.53
2018-12-31T06:37:24.408Z,18.53
2018-12-31T06:39:51.595Z,18.55
2018-12-31T06:42:18.853Z,18.57
2018-12-31T06:44:46.068Z,18.59
2018-12-31T06:47:13.275Z,18.56
2018-12-31T06:49:40.483Z,18.57
2018-12-31T06:52:07.717Z,18.57
2018-12-31T06:54:34.988Z,18.56
2018-12-31T06:57:02.175Z,18.59
2018-12-31T06:59:29.367Z,18.58
2018-12-31T07:01:56.564Z,18.57
2018-12-31T07:04:23.837Z,18.57
2018-12-31T07:06:51.011Z,18.59
2018-12-31T07:09:18.212Z,18.59
2018-12-31T07:11:45.445Z,18.58
2018-12-31T07:14:12.629Z,18.58
2018-12-31T07:16:39.852Z,18.60
2018-12-31T07:19:07.012Z,18.59
2018-12-31T07:21:34.325Z,18.60
2018-12-31T07:24:01.535Z,18.60
2018-12-31T07:26:28.730Z,18.63
2018-12-31T07:28:55.940Z,18.63
2018-12-31T07:31:23.131Z,18.61
2018-12-31T07:33:50.368Z,18.58
2018-12-31T07:36:17.552Z,18.62
2018-12-31T07:38:44.734Z,18.64
2018-12-31T07:41:11.942Z,18.67
2018-12-31T07:43:39.161Z,18.66
2018-12-31T07:46:06.296Z,18.67
2018-12-31T07:48:33.485Z,18.64
2018-12-31T07:51:00.839Z,18.64
2018-12-31T07:53:28.027Z,18.67
2018-12-31T07:55:55.246Z,18.69
2018-12-31T07:58:22.445Z,18.68
2018-12-31T08:00:49.761Z,18.67
2018-12-31T08:03:16.965Z,18.66
2018-12-31T08:05:44.155Z,18.68
2018-12-31T08:08:11.372Z,18.68
2018-12-31T08:10:38.543Z,18.68
2018-12-31T08:13:05.784Z,18.67
2018-12-31T08:15:32.972Z,18.68
2018-12-31T08:18:00.158Z,18.68
2018-12-31T08:20:27.425Z,18.69
2018-12-31T08:22:54.652Z,18.68
2018-12-31T08:25:21.845Z,18.71
2018-12-31T08:27:49.025Z,18.72
2018-12-31T08:30:16.347Z,18.72
2018-12-31T08:32:43.501Z,18.73
2018-12-31T08:35:10.721Z,18.71
2018-12-31T08:37:38.002Z,18.71
2018-12-31T08:40:05.207Z,18.72
2018-12-31T08:42:32.578Z,18.72
2018-12-31T08:44:59.755Z,18.74
2018-12-31T08:47:26.894Z,18.74
2018-12-31T08:49:54.168Z,18.73
2018-12-31T08:52:21.373Z,18.74
2018-12-31T08:54:48.659Z,18.74
2018-12-31T08:57:15.838Z,18.73
2018-12-31T08:59:43.019Z,18.74
2018-12-31T09:02:10.225Z,18.74
2018-12-31T09:04:37.465Z,18.75
2018-12-31T09:07:04.665Z,18.75
2018-12-31T09:09:31.857Z,18.76
2018-12-31T09:11:59.080Z,18.78
2018-12-31T09:14:26.250Z,18.77
2018-12-31T09:16:53.465Z,18.81
2018-12-31T09:19:20.673Z,18.82
2018-12-31T09:21:47.941Z,18.84
2018-12-31T09:24:15.068Z,18.84
2018-12-31T09:26:42.257Z,18.83
2018-12-31T09:29:09.498Z,18.81
2018-12-31T09:31:36.773Z,18.83
2018-12-31T09:34:04.038Z,18.83
2018-12-31T09:36:31.209Z,18.85
2018-12-31T09:38:58.409Z,18.84
2018-12-31T09:41:25.608Z,18.85
2018-12-31T09:43:52.831Z,18.86
2018-12-31T09:46:20.016Z,18.85
2018-12-31T09:48:47.333Z,18.84
2018-12-31T09:51:14.502Z,18.86
2018-12-31T09:53:41.701Z,18.87
2018-12-31T09:56:08.908Z,18.87
2018-12-31T09:58:36.439Z,18.87
2018-12-31T10:01:05.225Z,18.89
2018-12-31T10:03:32.407Z,18.90
2018-12-31T10:05:59.631Z,18.93
2018-12-31T10:08:26.842Z,18.93
2018-12-31T10:10:54.041Z,18.92
2018-12-31T10:13:21.228Z,18.91
2018-12-31T10:15:48.381Z,18.91
2018-12-31T10:18:15.608Z,18.90
2018-12-31T10:20:42.797Z,18.89
2018-12-31T10:23:09.996Z,18.88
2018-12-31T10:25:37.227Z,18.89
2018-12-31T10:28:04.419Z,18.89
2018-12-31T10:30:31.680Z,18.89
2018-12-31T10:32:58.887Z,18.87
2018-12-31T10:35:26.084Z,18.87
2018-12-31T10:37:53.285Z,18.87
2018-12-31T10:40:20.619Z,18.85
2018-12-31T10:42:47.860Z,18.86
2018-12-31T10:45:15.023Z,18.85
2018-12-31T10:47:42.265Z,18.86
2018-12-31T10:50:09.475Z,18.88
2018-12-31T10:52:36.653Z,18.87
2018-12-31T10:55:04.333Z,18.89
2018-12-31T10:57:31.509Z,18.87
2018-12-31T10:59:58.715Z,18.89
2018-12-31T11:02:25.904Z,18.88
2018-12-31T11:04:53.083Z,18.91
2018-12-31T11:07:20.317Z,18.89
2018-12-31T11:09:47.550Z,18.90
2018-12-31T11:12:14.803Z,18.92
2018-12-31T11:14:41.982Z,18.90
2018-12-31T11:17:09.189Z,18.91
2018-12-31T11:19:36.426Z,18.92
2018-12-31T11:22:03.604Z,18.90
2018-12-31T11:24:30.825Z,18.90
2018-12-31T11:26:58.030Z,18.89
2018-12-31T11:29:25.251Z,18.91
2018-12-31T11:31:52.418Z,18.92
2018-12-31T11:34:19.698Z,18.93
2018-12-31T11:36:46.907Z,18.96
2018-12-31T11:39:14.076Z,18.95
2018-12-31T11:41:41.410Z,18.95
2018-12-31T11:44:08.599Z,18.97
2018-12-31T11:46:35.769Z,18.96
2018-12-31T11:49:03.005Z,18.94
2018-12-31T11:51:30.135Z,18.92
2018-12-31T11:53:57.328Z,18.93
2018-12-31T11:56:24.527Z,18.95
2018-12-31T11:58:51.760Z,18.96
2018-12-31T12:01:19.304Z,18.94
2018-12-31T12:03:46.466Z,18.94
2018-12-31T12:06:13.689Z,18.94
2018-12-31T12:08:40.859Z,18.93
2018-12-31T12:11:08.101Z,18.95
2018-12-31T12:13:35.307Z,18.95
2018-12-31T12:16:02.473Z,18.95
2018-12-31T12:18:29.702Z,18.93
2018-12-31T12:20:56.963Z,18.93
2018-12-31T12:23:24.179Z,18.91
2018-12-31T12:25:53.272Z,18.94
2018-12-31T12:28:20.641Z,18.94
2018-12-31T12:30:47.828Z,18.96
2018-12-31T12:33:14.992Z,18.95
2018-12-31T12:35:42.303Z,18.94
2018-12-31T12:38:09.496Z,18.96
2018-12-31T12:40:36.712Z,18.93
2018-12-31T12:43:03.937Z,18.90
2018-12-31T12:45:31.118Z,18.90
2018-12-31T12:47:58.354Z,18.88
2018-12-31T12:50:25.569Z,18.85
2018-12-31T12:52:52.777Z,18.86
2018-12-31T12:55:20.008Z,18.85
2018-12-31T12:57:47.231Z,18.87
2018-12-31T13:00:14.425Z,18.86
2018-12-31T13:02:41.660Z,18.84
2018-12-31T13:05:08.919Z,18.83
2018-12-31T13:07:37.984Z,18.84
2018-12-31T13:10:05.433Z,18.83
2018-12-31T13:12:32.637Z,18.83
2018-12-31T13:14:59.894Z,18.81
2018-12-31T13:17:27.067Z,18.80
2018-12-31T13:19:54.309Z,18.81
2018-12-31T13:22:21.525Z,18.83
2018-12-31T13:24:48.720Z,18.84
2018-12-31T13:27:15.928Z,18.82
2018-12-31T13:29:43.111Z,18.81
2018-12-31T13:32:10.364Z,18.83
2018-12-31T13:34:37.647Z,18.82
2018-12-31T13:37:04.964Z,18.82
2018-12-31T13:39:32.133Z,18.82
2018-12-31T13:41:59.337Z,18.83
2018-12-31T13:44:26.649Z,18.83
2018-12-31T13:46:53.793Z,18.83
2018-12-31T13:49:22.917Z,18.83
2018-12-31T13:51:50.094Z,18.79
2018-12-31T13:54:17.254Z,18.80
2018-12-31T13:56:45.106Z,18.81
2018-12-31T13:59:13.555Z,18.81
2018-12-31T14:01:40.807Z,18.79
2018-12-31T14:04:08.032Z,18.81
2018-12-31T14:06:35.247Z,18.80
2018-12-31T14:11:57.632Z,18.78
2018-12-31T14:14:24.802Z,18.79
2018-12-31T14:16:51.985Z,18.78
2018-12-31T14:19:19.193Z,18.78
2018-12-31T14:21:46.396Z,18.77
2018-12-31T14:24:13.654Z,18.76
2018-12-31T14:26:40.856Z,18.76
2018-12-31T14:29:08.022Z,18.78
2018-12-31T14:31:35.228Z,18.78
2018-12-31T14:34:02.424Z,18.76
2018-12-31T14:36:32.041Z,18.75
2018-12-31T14:39:01.148Z,18.76
2018-12-31T14:41:28.378Z,18.78
2018-12-31T14:43:55.612Z,18.77
2018-12-31T14:46:23.089Z,18.73
2018-12-31T14:48:51.887Z,18.74
2018-12-31T14:51:19.101Z,18.72
2018-12-31T14:53:46.275Z,18.73
2018-12-31T14:56:13.485Z,18.73
2018-12-31T14:58:40.710Z,18.75
2018-12-31T15:01:07.916Z,18.75
2018-12-31T15:03:35.104Z,18.77
2018-12-31T15:06:04.181Z,18.77
2018-12-31T15:08:31.431Z,18.74
2018-12-31T15:10:58.583Z,18.73
2018-12-31T15:13:25.772Z,18.74
2018-12-31T15:15:52.990Z,18.72
2018-12-31T15:18:20.492Z,18.74
2018-12-31T15:20:47.735Z,18.73
2018-12-31T15:23:14.914Z,18.74
2018-12-31T15:25:42.119Z,18.72
2018-12-31T15:28:09.303Z,18.71
2018-12-31T15:30:36.646Z,18.70
2018-12-31T15:33:03.843Z,18.71
2018-12-31T15:35:50.465Z,18.70
2018-12-31T15:38:17.664Z,18.70
2018-12-31T15:40:44.893Z,18.71
2018-12-31T15:43:12.134Z,18.72
2018-12-31T15:45:58.817Z,18.68
2018-12-31T15:48:26.009Z,18.68
2018-12-31T15:50:53.185Z,18.68
2018-12-31T15:53:20.469Z,18.70
2018-12-31T15:55:49.602Z,18.69
2018-12-31T15:58:16.807Z,18.66
2018-12-31T16:00:43.989Z,18.65
2018-12-31T16:03:11.222Z,18.62
2018-12-31T16:05:38.410Z,18.65
2018-12-31T16:08:05.645Z,18.65
2018-12-31T16:10:32.804Z,18.65
2018-12-31T16:13:00.009Z,18.66
2018-12-31T16:15:27.224Z,18.64
2018-12-31T16:17:54.573Z,18.64
2018-12-31T16:20:21.811Z,18.65
2018-12-31T16:22:48.990Z,18.61
2018-12-31T16:25:16.317Z,18.60
2018-12-31T16:27:43.476Z,18.58
2018-12-31T16:30:10.670Z,18.57
2018-12-31T16:32:37.883Z,18.58
2018-12-31T16:35:05.110Z,18.59
2018-12-31T16:37:34.204Z,18.57
2018-12-31T16:40:01.453Z,18.57
2018-12-31T16:42:28.684Z,18.57
2018-12-31T16:44:55.917Z,18.58
2018-12-31T16:47:23.109Z,18.58
2018-12-31T16:49:50.328Z,18.58
2018-12-31T16:52:19.410Z,18.58
2018-12-31T16:54:46.751Z,18.58
2018-12-31T16:57:13.926Z,18.59
2018-12-31T16:59:41.167Z,18.57
2018-12-31T17:02:08.356Z,18.59
2018-12-31T17:04:35.550Z,18.59
2018-12-31T17:07:02.772Z,18.58
2018-12-31T17:09:29.951Z,18.57
2018-12-31T17:11:57.168Z,18.56
2018-12-31T17:14:24.382Z,18.55
2018-12-31T17:16:51.562Z,18.58
2018-12-31T17:19:18.792Z,18.59
2018-12-31T17:21:45.990Z,18.59
2018-12-31T17:24:13.161Z,18.57
2018-12-31T17:26:40.357Z,18.55
2018-12-31T17:29:07.575Z,18.54
2018-12-31T17:31:34.732Z,18.51
2018-12-31T17:34:01.978Z,18.51
2018-12-31T17:36:29.178Z,18.51
2018-12-31T17:38:56.410Z,18.51
2018-12-31T17:41:23.617Z,18.51
2018-12-31T17:44:11.970Z,18.50
2018-12-31T17:46:58.825Z,18.51
2018-12-31T17:49:26.102Z,18.51
2018-12-31T17:51:55.812Z,18.49
2018-12-31T17:54:22.540Z,18.53
2018-12-31T17:56:49.711Z,18.52
2018-12-31T17:59:16.905Z,18.53
2018-12-31T18:01:44.217Z,18.53
2018-12-31T18:04:11.394Z,18.54
2018-12-31T18:06:38.625Z,18.54
2018-12-31T18:09:06.682Z,18.56
2018-12-31T18:11:33.914Z,18.55
2018-12-31T18:14:01.255Z,18.54
2018-12-31T18:16:28.436Z,18.53
2018-12-31T18:18:55.614Z,18.52
2018-12-31T18:21:42.270Z,18.51
2018-12-31T18:24:09.456Z,18.51
2018-12-31T18:26:36.694Z,18.51
2018-12-31T18:29:03.898Z,18.53
2018-12-31T18:31:31.092Z,18.54
2018-12-31T18:33:58.285Z,18.55
2018-12-31T18:36:25.497Z,18.54
2018-12-31T18:38:52.699Z,18.53
2018-12-31T18:41:19.916Z,18.52
2018-12-31T18:43:47.156Z,18.53
2018-12-31T18:46:14.338Z,18.53
2018-12-31T18:48:41.749Z,18.52
2018-12-31T18:51:08.906Z,18.53
2018-12-31T18:53:36.085Z,18.51
2018-12-31T18:56:22.822Z,18.49
2018-12-31T18:58:50.003Z,18.50
2018-12-31T19:01:17.280Z,18.51
2018-12-31T19:03:44.492Z,18.52
2018-12-31T19:06:11.669Z,18.53
2018-12-31T19:08:38.915Z,18.52
2018-12-31T19:11:06.074Z,18.50
2018-12-31T19:13:33.254Z,18.51
2018-12-31T19:16:00.478Z,18.50
2018-12-31T19:18:27.723Z,18.49
2018-12-31T19:20:54.995Z,18.51
2018-12-31T19:23:22.196Z,18.49
2018-12-31T19:25:49.404Z,18.50
2018-12-31T19:28:16.841Z,18.51
2018-12-31T19:30:43.977Z,18.49
2018-12-31T19:33:11.176Z,18.45
2018-12-31T19:35:38.360Z,18.45
2018-12-31T19:38:05.573Z,18.44
2018-12-31T19:40:32.801Z,18.42
2018-12-31T19:43:00.006Z,18.41
2018-12-31T19:45:27.233Z,18.42
2018-12-31T19:47:55.756Z,18.44
2018-12-31T19:50:23.671Z,18.43
2018-12-31T19:52:50.890Z,18.40
2018-12-31T19:55:18.076Z,18.38
2018-12-31T19:57:47.216Z,18.36
2018-12-31T20:00:33.845Z,18.36
2018-12-31T20:03:01.103Z,18.34
2018-12-31T20:05:28.325Z,18.38
2018-12-31T20:07:57.441Z,18.35
2018-12-31T20:10:24.683Z,18.36
2018-12-31T20:12:51.881Z,18.36
2018-12-31T20:15:19.083Z,18.33
2018-12-31T20:17:46.449Z,18.33
2018-12-31T20:20:13.657Z,18.35
2018-12-31T20:22:42.769Z,18.33
2018-12-31T20:25:10.077Z,18.34
2018-12-31T20:27:37.303Z,18.33
2018-12-31T20:30:24.004Z,18.31
2018-12-31T20:32:51.216Z,18.31
2018-12-31T20:35:18.403Z,18.33
2018-12-31T20:37:45.616Z,18.34
2018-12-31T20:40:12.792Z,18.32
2018-12-31T20:42:39.986Z,18.33
2018-12-31T20:45:07.169Z,18.29
2018-12-31T20:47:34.479Z,18.27
2018-12-31T20:50:04.202Z,18.26
2018-12-31T20:52:31.365Z,18.24
2018-12-31T20:54:58.618Z,18.27
2018-12-31T20:57:25.785Z,18.29
2018-12-31T20:59:53.073Z,18.29
2018-12-31T21:02:20.348Z,18.26
2018-12-31T21:04:47.763Z,18.25
2018-12-31T21:07:14.966Z,18.26
2018-12-31T21:09:42.209Z,18.25
2018-12-31T21:12:09.369Z,18.25
2018-12-31T21:14:36.608Z,18.25
2018-12-31T21:17:03.801Z,18.24
2018-12-31T21:19:32.972Z,18.27
2018-12-31T21:22:12.233Z,18.25
2018-12-31T21:24:39.465Z,18.25
2018-12-31T21:27:07.371Z,18.27
2018-12-31T21:29:35.776Z,18.26
2018-12-31T21:32:03.117Z,18.26
2018-12-31T21:34:30.331Z,18.24
2018-12-31T21:36:57.550Z,18.22
2018-12-31T21:39:24.732Z,18.22
2018-12-31T21:41:52.046Z,18.24
2018-12-31T21:44:19.228Z,18.22
2018-12-31T21:46:46.608Z,18.22
2018-12-31T21:49:13.822Z,18.17
2018-12-31T21:52:00.447Z,18.17
2018-12-31T21:54:27.693Z,18.17
2018-12-31T21:56:56.765Z,18.16
2018-12-31T21:59:23.928Z,18.17
2018-12-31T22:01:51.144Z,18.14
2018-12-31T22:04:18.426Z,18.14
2018-12-31T22:06:45.619Z,18.14
2018-12-31T22:09:12.834Z,18.12
2018-12-31T22:11:41.947Z,18.14
2018-12-31T22:14:09.138Z,18.15
2018-12-31T22:16:36.329Z,18.16
2018-12-31T22:19:03.604Z,18.14
2018-12-31T22:21:30.850Z,18.14
2018-12-31T22:24:17.514Z,18.04
2018-12-31T22:26:44.699Z,18.04
2018-12-31T22:29:11.884Z,18.08
2018-12-31T22:31:39.104Z,18.09
2018-12-31T22:34:06.334Z,18.07
2018-12-31T22:36:53.119Z,18.07
2018-12-31T22:39:20.410Z,18.07
2018-12-31T22:41:47.664Z,18.04
2018-12-31T22:44:14.905Z,18.09
2018-12-31T22:46:42.178Z,18.06
2018-12-31T22:49:09.476Z,18.03
2018-12-31T22:51:36.752Z,18.04
2018-12-31T22:54:04.036Z,18.05
2018-12-31T22:56:31.266Z,18.06
2018-12-31T22:59:17.957Z,18.06
2018-12-31T23:01:45.186Z,18.06
2018-12-31T23:04:31.797Z,18.00
2018-12-31T23:07:18.475Z,18.02
2018-12-31T23:09:45.678Z,18.02
2018-12-31T23:12:32.377Z,18.02
2018-12-31T23:14:59.812Z,18.02
2018-12-31T23:17:46.682Z,17.99
2018-12-31T23:20:26.059Z,17.99
2018-12-31T23:22:53.413Z,17.99
2018-12-31T23:25:20.598Z,18.04
2018-12-31T23:27:47.807Z,18.03
2018-12-31T23:30:15.045Z,18.06
2018-12-31T23:32:42.261Z,18.03
2018-12-31T23:35:30.243Z,18.04
2018-12-31T23:37:58.141Z,18.04
2018-12-31T23:40:25.347Z,17.99
2018-12-31T23:42:52.551Z,18.03
2018-12-31T23:45:19.790Z,18.01
2018-12-31T23:48:06.467Z,17.99
2018-12-31T23:50:33.684Z,17.99
2018-12-31T23:53:01.036Z,18.02
2018-12-31T23:55:28.315Z,18.02
2018-12-31T23:58:15.074Z,18.03
